sensor_id;sensor_type;location;lat;lon;timestamp;pressure;altitude;pressure_sealevel;temperature;humidity
71643;BME280;59438;45.014;39.006;2022-10-16T00:01:53;101829.91;;;10.43;60.16
71643;BME280;59438;45.014;39.006;2022-10-16T00:04:20;101834.31;;;10.43;59.94
71643;BME280;59438;45.014;39.006;2022-10-16T00:06:46;101829.97;;;10.42;60.40
71643;BME280;59438;45.014;39.006;2022-10-16T00:09:13;101837.84;;;10.42;60.82
71643;BME280;59438;45.014;39.006;2022-10-16T00:11:40;101826.56;;;10.35;60.98
71643;BME280;59438;45.014;39.006;2022-10-16T00:14:10;101834.34;;;10.41;60.58
71643;BME280;59438;45.014;39.006;2022-10-16T00:16:37;101840.47;;;10.42;60.37
71643;BME280;59438;45.014;39.006;2022-10-16T00:19:04;101845.84;;;10.36;60.65
71643;BME280;59438;45.014;39.006;2022-10-16T00:21:31;101851.09;;;10.34;60.74
71643;BME280;59438;45.014;39.006;2022-10-16T00:23:59;101840.69;;;10.30;61.20
71643;BME280;59438;45.014;39.006;2022-10-16T00:26:26;101843.31;;;10.26;60.60
71643;BME280;59438;45.014;39.006;2022-10-16T00:28:53;101847.75;;;10.23;60.84
71643;BME280;59438;45.014;39.006;2022-10-16T00:31:22;101836.50;;;10.16;61.09
71643;BME280;59438;45.014;39.006;2022-10-16T00:33:49;101831.34;;;10.10;60.50
71643;BME280;59438;45.014;39.006;2022-10-16T00:36:17;101826.91;;;10.15;61.07
71643;BME280;59438;45.014;39.006;2022-10-16T00:38:44;101841.66;;;10.21;61.36
71643;BME280;59438;45.014;39.006;2022-10-16T00:41:13;101846.88;;;10.24;60.89
71643;BME280;59438;45.014;39.006;2022-10-16T00:43:42;101839.88;;;10.24;61.37
71643;BME280;59438;45.014;39.006;2022-10-16T00:46:16;101830.31;;;10.19;61.07
71643;BME280;59438;45.014;39.006;2022-10-16T00:48:48;101841.66;;;10.22;60.78
71643;BME280;59438;45.014;39.006;2022-10-16T00:51:19;101845.19;;;10.20;61.52
71643;BME280;59438;45.014;39.006;2022-10-16T00:53:48;101831.28;;;10.15;61.48
71643;BME280;59438;45.014;39.006;2022-10-16T00:56:15;101845.19;;;10.21;61.27
71643;BME280;59438;45.014;39.006;2022-10-16T00:58:42;101850.44;;;10.21;61.81
71643;BME280;59438;45.014;39.006;2022-10-16T01:01:08;101865.25;;;10.25;60.85
71643;BME280;59438;45.014;39.006;2022-10-16T01:03:36;101858.31;;;10.21;61.64
71643;BME280;59438;45.014;39.006;2022-10-16T01:06:24;101851.19;;;10.28;61.55
71643;BME280;59438;45.014;39.006;2022-10-16T01:09:02;101824.44;;;10.04;61.82
71643;BME280;59438;45.014;39.006;2022-10-16T01:11:37;101866.03;;;10.31;61.73
71643;BME280;59438;45.014;39.006;2022-10-16T01:14:10;101836.47;;;10.18;61.61
71643;BME280;59438;45.014;39.006;2022-10-16T01:16:43;101867.63;;;10.39;61.67
71643;BME280;59438;45.014;39.006;2022-10-16T01:19:16;101851.94;;;10.38;61.92
71643;BME280;59438;45.014;39.006;2022-10-16T01:21:48;101861.53;;;10.39;61.24
71643;BME280;59438;45.014;39.006;2022-10-16T01:24:27;101857.09;;;10.42;61.01
71643;BME280;59438;45.014;39.006;2022-10-16T01:27:07;101857.00;;;10.47;60.72
71643;BME280;59438;45.014;39.006;2022-10-16T01:29:38;101806.88;;;10.08;61.44
71643;BME280;59438;45.014;39.006;2022-10-16T01:32:11;101860.72;;;10.35;61.70
71643;BME280;59438;45.014;39.006;2022-10-16T01:34:47;101870.34;;;10.35;62.10
71643;BME280;59438;45.014;39.006;2022-10-16T01:37:16;101851.28;;;10.23;61.56
71643;BME280;59438;45.014;39.006;2022-10-16T01:39:47;101871.38;;;10.24;61.76
71643;BME280;59438;45.014;39.006;2022-10-16T01:42:20;101867.91;;;10.22;61.96
71643;BME280;59438;45.014;39.006;2022-10-16T01:44:47;101858.44;;;10.14;61.54
71643;BME280;59438;45.014;39.006;2022-10-16T01:47:15;101854.97;;;10.10;61.18
71643;BME280;59438;45.014;39.006;2022-10-16T01:49:44;101848.06;;;10.06;61.27
71643;BME280;59438;45.014;39.006;2022-10-16T01:52:15;101856.00;;;10.03;61.51
71643;BME280;59438;45.014;39.006;2022-10-16T01:54:46;101838.63;;;9.94;61.75
71643;BME280;59438;45.014;39.006;2022-10-16T01:57:14;101856.88;;;10.02;61.33
71643;BME280;59438;45.014;39.006;2022-10-16T01:59:47;101863.06;;;9.98;62.04
71643;BME280;59438;45.014;39.006;2022-10-16T02:02:17;101863.16;;;9.90;62.07
71643;BME280;59438;45.014;39.006;2022-10-16T02:04:46;101863.25;;;9.87;61.81
71643;BME280;59438;45.014;39.006;2022-10-16T02:07:15;101869.41;;;9.84;61.55
71643;BME280;59438;45.014;39.006;2022-10-16T02:09:42;101864.13;;;9.86;61.90
71643;BME280;59438;45.014;39.006;2022-10-16T02:12:13;101869.44;;;9.81;62.37
71643;BME280;59438;45.014;39.006;2022-10-16T02:14:41;101867.75;;;9.77;62.33
71643;BME280;59438;45.014;39.006;2022-10-16T02:17:15;101866.91;;;9.74;62.12
71643;BME280;59438;45.014;39.006;2022-10-16T02:19:42;101866.97;;;9.72;62.53
71643;BME280;59438;45.014;39.006;2022-10-16T02:22:12;101833.22;;;9.47;62.54
71643;BME280;59438;45.014;39.006;2022-10-16T02:24:46;101865.22;;;9.71;63.04
71643;BME280;59438;45.014;39.006;2022-10-16T02:27:20;101845.34;;;9.55;62.70
71643;BME280;59438;45.014;39.006;2022-10-16T02:29:53;101874.88;;;9.69;62.85
71643;BME280;59438;45.014;39.006;2022-10-16T02:32:23;101868.69;;;9.72;62.85
71643;BME280;59438;45.014;39.006;2022-10-16T02:34:51;101871.28;;;9.75;63.37
71643;BME280;59438;45.014;39.006;2022-10-16T02:37:18;101874.00;;;9.68;62.90
71643;BME280;59438;45.014;39.006;2022-10-16T02:39:46;101879.25;;;9.70;62.73
71643;BME280;59438;45.014;39.006;2022-10-16T02:42:13;101877.56;;;9.66;63.28
71643;BME280;59438;45.014;39.006;2022-10-16T02:44:40;101864.44;;;9.66;62.55
71643;BME280;59438;45.014;39.006;2022-10-16T02:47:06;101853.19;;;9.58;63.20
71643;BME280;59438;45.014;39.006;2022-10-16T02:49:34;101885.38;;;9.67;63.84
71643;BME280;59438;45.014;39.006;2022-10-16T02:52:01;101877.50;;;9.69;62.92
71643;BME280;59438;45.014;39.006;2022-10-16T02:54:27;101873.09;;;9.69;63.26
71643;BME280;59438;45.014;39.006;2022-10-16T02:56:53;101879.25;;;9.70;63.56
71643;BME280;59438;45.014;39.006;2022-10-16T02:59:22;101881.81;;;9.73;63.65
71643;BME280;59438;45.014;39.006;2022-10-16T03:01:49;101885.28;;;9.75;63.73
71643;BME280;59438;45.014;39.006;2022-10-16T03:04:18;101891.38;;;9.76;63.59
71643;BME280;59438;45.014;39.006;2022-10-16T03:06:46;101887.91;;;9.75;63.77
71643;BME280;59438;45.014;39.006;2022-10-16T03:09:12;101880.88;;;9.76;64.29
71643;BME280;59438;45.014;39.006;2022-10-16T03:11:39;101886.97;;;9.79;63.86
71643;BME280;59438;45.014;39.006;2022-10-16T03:14:05;101888.75;;;9.77;63.88
71643;BME280;59438;45.014;39.006;2022-10-16T03:16:31;101881.72;;;9.79;64.56
71643;BME280;59438;45.014;39.006;2022-10-16T03:18:58;101882.63;;;9.78;64.63
71643;BME280;59438;45.014;39.006;2022-10-16T03:21:24;101886.94;;;9.82;64.05
71643;BME280;59438;45.014;39.006;2022-10-16T03:23:52;101881.63;;;9.85;65.00
71643;BME280;59438;45.014;39.006;2022-10-16T03:26:18;101886.03;;;9.82;64.58
71643;BME280;59438;45.014;39.006;2022-10-16T03:28:45;101888.66;;;9.82;65.11
71643;BME280;59438;45.014;39.006;2022-10-16T03:31:12;101886.88;;;9.84;65.06
71643;BME280;59438;45.014;39.006;2022-10-16T03:33:39;101884.31;;;9.81;64.81
71643;BME280;59438;45.014;39.006;2022-10-16T03:36:06;101885.25;;;9.78;64.86
71643;BME280;59438;45.014;39.006;2022-10-16T03:38:32;101886.09;;;9.79;64.76
71643;BME280;59438;45.014;39.006;2022-10-16T03:41:00;101886.09;;;9.80;65.41
71643;BME280;59438;45.014;39.006;2022-10-16T03:43:26;101890.44;;;9.80;64.81
71643;BME280;59438;45.014;39.006;2022-10-16T03:45:53;101891.28;;;9.82;65.40
71643;BME280;59438;45.014;39.006;2022-10-16T03:48:19;101893.91;;;9.82;65.62
71643;BME280;59438;45.014;39.006;2022-10-16T03:50:45;101894.81;;;9.81;65.40
71643;BME280;59438;45.014;39.006;2022-10-16T03:53:12;101892.13;;;9.84;65.13
71643;BME280;59438;45.014;39.006;2022-10-16T03:55:38;101900.06;;;9.82;65.80
71643;BME280;59438;45.014;39.006;2022-10-16T03:58:08;101894.81;;;9.81;65.76
71643;BME280;59438;45.014;39.006;2022-10-16T04:00:35;101902.69;;;9.82;65.27
71643;BME280;59438;45.014;39.006;2022-10-16T04:03:01;101901.84;;;9.80;65.14
71643;BME280;59438;45.014;39.006;2022-10-16T04:05:27;101902.69;;;9.82;65.38
71643;BME280;59438;45.014;39.006;2022-10-16T04:07:54;101897.44;;;9.82;65.39
71643;BME280;59438;45.014;39.006;2022-10-16T04:10:20;101886.88;;;9.84;65.52
71643;BME280;59438;45.014;39.006;2022-10-16T04:12:46;101895.59;;;9.86;65.84
71643;BME280;59438;45.014;39.006;2022-10-16T04:15:14;101887.69;;;9.89;66.25
71643;BME280;59438;45.014;39.006;2022-10-16T04:17:41;101899.81;;;9.98;66.01
71643;BME280;59438;45.014;39.006;2022-10-16T04:20:08;101894.53;;;10.01;65.94
71643;BME280;59438;45.014;39.006;2022-10-16T04:22:34;101907.59;;;10.02;65.99
71643;BME280;59438;45.014;39.006;2022-10-16T04:25:01;101907.56;;;10.05;66.07
71643;BME280;59438;45.014;39.006;2022-10-16T04:27:27;101910.13;;;10.10;65.88
71643;BME280;59438;45.014;39.006;2022-10-16T04:29:53;101904.78;;;10.15;65.68
71643;BME280;59438;45.014;39.006;2022-10-16T04:32:21;101910.81;;;10.21;66.00
71643;BME280;59438;45.014;39.006;2022-10-16T04:34:48;101907.22;;;10.27;66.04
71643;BME280;59438;45.014;39.006;2022-10-16T04:37:14;101907.13;;;10.33;66.08
71643;BME280;59438;45.014;39.006;2022-10-16T04:39:40;101908.78;;;10.42;66.13
71643;BME280;59438;45.014;39.006;2022-10-16T04:42:07;101907.75;;;10.49;65.46
71643;BME280;59438;45.014;39.006;2022-10-16T04:44:33;101908.47;;;10.57;65.48
71643;BME280;59438;45.014;39.006;2022-10-16T04:47:00;101912.69;;;10.66;66.25
71643;BME280;59438;45.014;39.006;2022-10-16T04:49:27;101914.38;;;10.70;66.36
71643;BME280;59438;45.014;39.006;2022-10-16T04:51:54;101914.25;;;10.76;65.91
71643;BME280;59438;45.014;39.006;2022-10-16T04:54:20;101908.91;;;10.81;65.61
71643;BME280;59438;45.014;39.006;2022-10-16T04:56:46;101917.63;;;10.84;66.26
71643;BME280;59438;45.014;39.006;2022-10-16T04:59:13;101924.50;;;10.92;65.98
71643;BME280;59438;45.014;39.006;2022-10-16T05:01:40;101916.56;;;10.95;65.99
71643;BME280;59438;45.014;39.006;2022-10-16T05:04:06;101927.81;;;11.01;65.73
71643;BME280;59438;45.014;39.006;2022-10-16T05:06:34;101933.03;;;11.03;65.75
71643;BME280;59438;45.014;39.006;2022-10-16T05:09:00;101947.00;;;11.06;65.22
71643;BME280;59438;45.014;39.006;2022-10-16T05:11:27;101933.84;;;11.06;66.03
71643;BME280;59438;45.014;39.006;2022-10-16T05:13:53;101938.19;;;11.09;65.56
71643;BME280;59438;45.014;39.006;2022-10-16T05:16:20;101944.25;;;11.13;65.08
71643;BME280;59438;45.014;39.006;2022-10-16T05:18:46;101942.44;;;11.16;65.61
71643;BME280;59438;45.014;39.006;2022-10-16T05:21:13;101949.41;;;11.17;65.28
71643;BME280;59438;45.014;39.006;2022-10-16T05:23:41;101951.94;;;11.23;65.38
71643;BME280;59438;45.014;39.006;2022-10-16T05:26:08;101950.88;;;11.32;65.41
71643;BME280;59438;45.014;39.006;2022-10-16T05:28:34;101947.22;;;11.39;64.94
71643;BME280;59438;45.014;39.006;2022-10-16T05:31:04;101955.75;;;11.50;64.55
71643;BME280;59438;45.014;39.006;2022-10-16T05:33:30;101953.91;;;11.56;64.95
71643;BME280;59438;45.014;39.006;2022-10-16T05:36:00;101951.16;;;11.62;65.22
71643;BME280;59438;45.014;39.006;2022-10-16T05:38:26;101951.91;;;11.67;64.44
71643;BME280;59438;45.014;39.006;2022-10-16T05:40:54;101951.75;;;11.73;64.65
71643;BME280;59438;45.014;39.006;2022-10-16T05:43:20;101966.44;;;11.83;64.43
71643;BME280;59438;45.014;39.006;2022-10-16T05:45:54;101964.56;;;11.90;64.58
71643;BME280;59438;45.014;39.006;2022-10-16T05:48:20;101974.81;;;12.04;64.95
71643;BME280;59438;45.014;39.006;2022-10-16T05:50:47;101972.84;;;12.14;64.26
71643;BME280;59438;45.014;39.006;2022-10-16T05:53:13;101973.53;;;12.20;64.23
71643;BME280;59438;45.014;39.006;2022-10-16T05:55:39;101963.72;;;12.27;64.27
71643;BME280;59438;45.014;39.006;2022-10-16T05:58:07;101967.03;;;12.35;64.57
71643;BME280;59438;45.014;39.006;2022-10-16T06:00:34;101973.06;;;12.40;64.56
71643;BME280;59438;45.014;39.006;2022-10-16T06:03:00;101969.34;;;12.49;64.57
71643;BME280;59438;45.014;39.006;2022-10-16T06:05:27;101967.34;;;12.59;64.43
71643;BME280;59438;45.014;39.006;2022-10-16T06:07:53;101964.31;;;12.74;64.46
71643;BME280;59438;45.014;39.006;2022-10-16T06:10:20;101956.31;;;12.79;63.94
71643;BME280;59438;45.014;39.006;2022-10-16T06:12:46;101964.81;;;12.88;64.42
71643;BME280;59438;45.014;39.006;2022-10-16T06:15:14;101961.16;;;12.94;64.59
71643;BME280;59438;45.014;39.006;2022-10-16T06:17:41;101953.03;;;13.02;64.49
71643;BME280;59438;45.014;39.006;2022-10-16T06:20:08;101952.78;;;13.11;64.76
71643;BME280;59438;45.014;39.006;2022-10-16T06:22:34;101947.25;;;13.20;64.42
71643;BME280;59438;45.014;39.006;2022-10-16T06:25:00;101947.00;;;13.28;64.53
71643;BME280;59438;45.014;39.006;2022-10-16T06:27:27;101963.59;;;13.35;64.48
71643;BME280;59438;45.014;39.006;2022-10-16T06:29:53;101965.09;;;13.43;64.45
71643;BME280;59438;45.014;39.006;2022-10-16T06:32:21;101955.06;;;13.55;64.28
71643;BME280;59438;45.014;39.006;2022-10-16T06:34:47;101952.44;;;13.55;64.20
71643;BME280;59438;45.014;39.006;2022-10-16T06:37:14;101950.53;;;13.60;64.29
71643;BME280;59438;45.014;39.006;2022-10-16T06:39:40;101948.78;;;13.59;64.54
71643;BME280;59438;45.014;39.006;2022-10-16T06:42:07;101958.22;;;13.67;64.22
71643;BME280;59438;45.014;39.006;2022-10-16T06:44:33;101956.31;;;13.73;64.29
71643;BME280;59438;45.014;39.006;2022-10-16T06:46:59;101956.16;;;13.77;64.26
71643;BME280;59438;45.014;39.006;2022-10-16T06:49:27;101957.72;;;13.84;64.35
71643;BME280;59438;45.014;39.006;2022-10-16T06:51:53;101960.88;;;13.96;64.10
71643;BME280;59438;45.014;39.006;2022-10-16T06:54:20;101958.03;;;14.02;63.79
71643;BME280;59438;45.014;39.006;2022-10-16T06:56:46;101969.41;;;14.04;63.99
71643;BME280;59438;45.014;39.006;2022-10-16T06:59:12;101968.28;;;14.13;63.99
71643;BME280;59438;45.014;39.006;2022-10-16T07:01:39;101963.66;;;14.19;64.04
71643;BME280;59438;45.014;39.006;2022-10-16T07:04:05;101970.28;;;14.32;63.69
71643;BME280;59438;45.014;39.006;2022-10-16T07:06:34;101971.91;;;14.37;63.64
71643;BME280;59438;45.014;39.006;2022-10-16T07:09:02;101962.06;;;14.42;63.32
71643;BME280;59438;45.014;39.006;2022-10-16T07:11:29;101973.25;;;14.50;63.06
71643;BME280;59438;45.014;39.006;2022-10-16T07:13:55;101972.25;;;14.52;63.10
71643;BME280;59438;45.014;39.006;2022-10-16T07:16:23;101967.78;;;14.56;62.88
71643;BME280;59438;45.014;39.006;2022-10-16T07:18:50;101961.56;;;14.57;62.89
71643;BME280;59438;45.014;39.006;2022-10-16T07:21:18;101971.34;;;14.54;63.16
71643;BME280;59438;45.014;39.006;2022-10-16T07:23:49;101972.09;;;14.59;63.29
71643;BME280;59438;45.014;39.006;2022-10-16T07:26:16;101984.25;;;14.64;62.84
71643;BME280;59438;45.014;39.006;2022-10-16T07:28:42;101973.50;;;14.69;63.19
71643;BME280;59438;45.014;39.006;2022-10-16T07:31:11;101927.47;;;14.48;63.00
71643;BME280;59438;45.014;39.006;2022-10-16T07:33:38;101965.84;;;14.86;62.94
71643;BME280;59438;45.014;39.006;2022-10-16T07:36:05;101978.72;;;14.97;62.73
71643;BME280;59438;45.014;39.006;2022-10-16T07:38:32;101977.41;;;15.09;62.12
71643;BME280;59438;45.014;39.006;2022-10-16T07:41:01;101921.75;;;14.87;62.50
71643;BME280;59438;45.014;39.006;2022-10-16T07:43:28;101973.19;;;15.28;61.95
71643;BME280;59438;45.014;39.006;2022-10-16T07:45:55;101971.97;;;15.37;62.04
71643;BME280;59438;45.014;39.006;2022-10-16T07:48:23;101969.81;;;15.48;62.12
71643;BME280;59438;45.014;39.006;2022-10-16T07:50:50;101961.31;;;15.62;62.09
71643;BME280;59438;45.014;39.006;2022-10-16T07:53:16;101964.34;;;15.77;61.84
71643;BME280;59438;45.014;39.006;2022-10-16T07:55:42;101959.53;;;15.86;61.76
71643;BME280;59438;45.014;39.006;2022-10-16T07:58:10;101966.19;;;15.97;60.97
71643;BME280;59438;45.014;39.006;2022-10-16T08:00:37;101972.16;;;16.02;61.03
71643;BME280;59438;45.014;39.006;2022-10-16T08:03:04;101968.41;;;16.07;60.59
71643;BME280;59438;45.014;39.006;2022-10-16T08:05:31;101969.22;;;16.09;60.57
71643;BME280;59438;45.014;39.006;2022-10-16T08:07:58;101969.16;;;16.11;60.74
71643;BME280;59438;45.014;39.006;2022-10-16T08:10:26;101973.53;;;16.12;60.98
71643;BME280;59438;45.014;39.006;2022-10-16T08:12:52;101976.56;;;16.25;60.51
71643;BME280;59438;45.014;39.006;2022-10-16T08:15:21;101976.38;;;16.29;60.95
71643;BME280;59438;45.014;39.006;2022-10-16T08:17:55;101975.94;;;16.40;60.58
71643;BME280;59438;45.014;39.006;2022-10-16T08:20:21;101981.59;;;16.53;60.71
71643;BME280;59438;45.014;39.006;2022-10-16T08:22:47;101952.56;;;16.50;60.83
71643;BME280;59438;45.014;39.006;2022-10-16T08:25:14;101967.63;;;16.70;60.15
71643;BME280;59438;45.014;39.006;2022-10-16T08:27:40;101974.31;;;16.79;60.63
71643;BME280;59438;45.014;39.006;2022-10-16T08:30:08;101968.72;;;16.86;60.35
71643;BME280;59438;45.014;39.006;2022-10-16T08:32:36;101970.75;;;17.00;60.16
71643;BME280;59438;45.014;39.006;2022-10-16T08:35:03;101977.38;;;17.10;60.11
71643;BME280;59438;45.014;39.006;2022-10-16T08:37:30;101971.59;;;17.21;59.78
71643;BME280;59438;45.014;39.006;2022-10-16T08:39:57;101976.34;;;17.33;59.59
71643;BME280;59438;45.014;39.006;2022-10-16T08:42:38;101975.72;;;17.47;59.49
71643;BME280;59438;45.014;39.006;2022-10-16T08:45:15;101976.19;;;17.57;58.82
71643;BME280;59438;45.014;39.006;2022-10-16T08:47:55;101988.16;;;17.66;58.65
71643;BME280;59438;45.014;39.006;2022-10-16T08:50:25;101954.47;;;17.47;58.13
71643;BME280;59438;45.014;39.006;2022-10-16T08:52:52;101978.59;;;17.62;57.81
71643;BME280;59438;45.014;39.006;2022-10-16T08:55:31;101979.56;;;17.61;58.29
71643;BME280;59438;45.014;39.006;2022-10-16T08:57:59;101970.94;;;17.56;58.16
71643;BME280;59438;45.014;39.006;2022-10-16T09:00:26;101975.31;;;17.57;58.16
71643;BME280;59438;45.014;39.006;2022-10-16T09:03:00;101987.31;;;17.65;58.25
71643;BME280;59438;45.014;39.006;2022-10-16T09:05:47;101970.13;;;17.72;58.41
71643;BME280;59438;45.014;39.006;2022-10-16T09:08:23;101973.03;;;17.87;58.04
71643;BME280;59438;45.014;39.006;2022-10-16T09:10:56;101952.03;;;17.81;57.36
71643;BME280;59438;45.014;39.006;2022-10-16T09:13:27;101972.69;;;17.95;57.43
71643;BME280;59438;45.014;39.006;2022-10-16T09:16:01;101951.47;;;17.74;57.42
71643;BME280;59438;45.014;39.006;2022-10-16T09:18:41;101955.16;;;17.90;57.56
71643;BME280;59438;45.014;39.006;2022-10-16T09:21:14;101966.28;;;17.99;57.41
71643;BME280;59438;45.014;39.006;2022-10-16T09:23:42;101974.50;;;18.11;57.42
71643;BME280;59438;45.014;39.006;2022-10-16T09:26:12;101976.75;;;18.21;57.27
71643;BME280;59438;45.014;39.006;2022-10-16T09:28:39;101974.25;;;18.35;57.00
71643;BME280;59438;45.014;39.006;2022-10-16T09:31:10;101984.19;;;18.49;56.32
71643;BME280;59438;45.014;39.006;2022-10-16T09:33:41;101960.09;;;18.52;56.02
71643;BME280;59438;45.014;39.006;2022-10-16T09:36:09;101977.47;;;18.59;55.37
71643;BME280;59438;45.014;39.006;2022-10-16T09:38:36;101974.72;;;18.61;55.42
71643;BME280;59438;45.014;39.006;2022-10-16T09:41:14;101972.25;;;18.58;55.44
71643;BME280;59438;45.014;39.006;2022-10-16T09:43:47;101966.66;;;18.45;55.78
71643;BME280;59438;45.014;39.006;2022-10-16T09:46:22;101973.94;;;18.41;55.79
71643;BME280;59438;45.014;39.006;2022-10-16T09:48:54;101974.56;;;18.29;56.05
71643;BME280;59438;45.014;39.006;2022-10-16T09:51:24;101976.75;;;18.21;56.04
71643;BME280;59438;45.014;39.006;2022-10-16T09:53:55;101969.06;;;18.15;56.14
71643;BME280;59438;45.014;39.006;2022-10-16T09:56:23;101979.75;;;18.13;56.28
71643;BME280;59438;45.014;39.006;2022-10-16T09:58:50;101979.13;;;18.08;56.62
71643;BME280;59438;45.014;39.006;2022-10-16T10:01:17;101982.28;;;18.16;56.11
71643;BME280;59438;45.014;39.006;2022-10-16T10:03:46;101974.75;;;18.07;56.31
71643;BME280;59438;45.014;39.006;2022-10-16T10:06:21;101964.94;;;17.90;57.39
71643;BME280;59438;45.014;39.006;2022-10-16T10:08:56;101922.59;;;17.66;56.78
71643;BME280;59438;45.014;39.006;2022-10-16T10:11:46;101972.16;;;18.05;56.76
71643;BME280;59438;45.014;39.006;2022-10-16T10:14:34;101971.28;;;18.05;56.89
71643;BME280;59438;45.014;39.006;2022-10-16T10:17:10;101971.34;;;18.03;56.88
71643;BME280;59438;45.014;39.006;2022-10-16T10:19:41;101958.16;;;18.02;56.33
71643;BME280;59438;45.014;39.006;2022-10-16T10:22:31;101966.69;;;18.08;56.59
71643;BME280;59438;45.014;39.006;2022-10-16T10:25:16;101969.34;;;18.08;56.73
71643;BME280;59438;45.014;39.006;2022-10-16T10:27:56;101970.94;;;18.12;56.05
71643;BME280;59438;45.014;39.006;2022-10-16T10:30:29;101963.31;;;18.05;56.28
71643;BME280;59438;45.014;39.006;2022-10-16T10:33:12;101967.78;;;18.04;56.55
71643;BME280;59438;45.014;39.006;2022-10-16T10:35:45;101974.81;;;18.05;56.34
71643;BME280;59438;45.014;39.006;2022-10-16T10:38:27;101971.34;;;18.03;56.28
71643;BME280;59438;45.014;39.006;2022-10-16T10:41:06;101910.03;;;17.70;56.43
71643;BME280;59438;45.014;39.006;2022-10-16T10:43:48;101954.78;;;17.98;56.38
71643;BME280;59438;45.014;39.006;2022-10-16T10:46:23;101963.31;;;18.05;55.97
71643;BME280;59438;45.014;39.006;2022-10-16T10:49:17;101964.75;;;18.12;56.21
71643;BME280;59438;45.014;39.006;2022-10-16T10:51:54;101959.28;;;18.15;55.96
71643;BME280;59438;45.014;39.006;2022-10-16T10:54:28;101967.75;;;18.23;55.53
71643;BME280;59438;45.014;39.006;2022-10-16T10:57:02;101974.22;;;18.18;55.62
71643;BME280;59438;45.014;39.006;2022-10-16T10:59:56;101960.91;;;18.18;55.72
71643;BME280;59438;45.014;39.006;2022-10-16T11:02:29;101969.00;;;18.16;55.36
71643;BME280;59438;45.014;39.006;2022-10-16T11:05:26;101961.69;;;18.20;55.52
71643;BME280;59438;45.014;39.006;2022-10-16T11:07:57;101960.44;;;18.09;55.44
71643;BME280;59438;45.014;39.006;2022-10-16T11:10:28;101947.72;;;17.97;55.71
71643;BME280;59438;45.014;39.006;2022-10-16T11:13:02;101973.59;;;18.12;55.23
71643;BME280;59438;45.014;39.006;2022-10-16T11:15:33;101971.47;;;18.02;55.37
71643;BME280;59438;45.014;39.006;2022-10-16T11:18:06;101957.56;;;17.95;55.61
71643;BME280;59438;45.014;39.006;2022-10-16T11:20:37;101959.16;;;17.99;55.87
71643;BME280;59438;45.014;39.006;2022-10-16T11:23:12;101949.31;;;18.01;55.75
71643;BME280;59438;45.014;39.006;2022-10-16T11:25:43;101964.09;;;18.07;55.90
71643;BME280;59438;45.014;39.006;2022-10-16T11:28:13;101937.34;;;17.92;55.22
71643;BME280;59438;45.014;39.006;2022-10-16T11:30:44;101966.22;;;18.18;55.04
71643;BME280;59438;45.014;39.006;2022-10-16T11:33:24;101947.31;;;18.06;55.59
71643;BME280;59438;45.014;39.006;2022-10-16T11:35:57;101971.00;;;18.11;55.71
71643;BME280;59438;45.014;39.006;2022-10-16T11:38:30;101976.97;;;18.16;55.31
71643;BME280;59438;45.014;39.006;2022-10-16T11:41:03;101970.69;;;18.17;55.68
71643;BME280;59438;45.014;39.006;2022-10-16T11:43:37;101968.81;;;18.19;55.57
71643;BME280;59438;45.014;39.006;2022-10-16T11:46:07;101979.03;;;18.28;55.47
71643;BME280;59438;45.014;39.006;2022-10-16T11:48:41;101973.22;;;18.20;55.62
71643;BME280;59438;45.014;39.006;2022-10-16T11:51:15;101983.94;;;18.19;55.83
71643;BME280;59438;45.014;39.006;2022-10-16T11:53:49;101961.63;;;18.04;55.45
71643;BME280;59438;45.014;39.006;2022-10-16T11:56:20;101974.59;;;18.10;56.01
71643;BME280;59438;45.014;39.006;2022-10-16T11:58:55;101992.19;;;18.12;56.01
71643;BME280;59438;45.014;39.006;2022-10-16T12:01:28;101989.31;;;18.17;55.59
71643;BME280;59438;45.014;39.006;2022-10-16T12:04:05;101993.72;;;18.18;55.75
71643;BME280;59438;45.014;39.006;2022-10-16T12:06:40;101993.84;;;18.15;55.50
71643;BME280;59438;45.014;39.006;2022-10-16T12:09:15;101993.06;;;18.13;55.70
71643;BME280;59438;45.014;39.006;2022-10-16T12:11:44;101990.25;;;18.16;55.21
71643;BME280;59438;45.014;39.006;2022-10-16T12:14:34;101949.78;;;17.92;55.31
71643;BME280;59438;45.014;39.006;2022-10-16T12:17:02;101962.59;;;17.82;55.79
71643;BME280;59438;45.014;39.006;2022-10-16T12:19:30;101975.69;;;17.87;55.95
71643;BME280;59438;45.014;39.006;2022-10-16T12:21:58;101989.63;;;17.92;56.01
71643;BME280;59438;45.014;39.006;2022-10-16T12:24:33;101992.28;;;17.92;56.13
71643;BME280;59438;45.014;39.006;2022-10-16T12:27:02;101986.03;;;17.93;55.69
71643;BME280;59438;45.014;39.006;2022-10-16T12:29:34;102008.25;;;17.92;55.73
71643;BME280;59438;45.014;39.006;2022-10-16T12:32:03;102001.81;;;17.77;56.10
71643;BME280;59438;45.014;39.006;2022-10-16T12:34:37;102014.03;;;17.81;56.15
71643;BME280;59438;45.014;39.006;2022-10-16T12:37:12;102000.25;;;17.73;56.17
71643;BME280;59438;45.014;39.006;2022-10-16T12:39:39;102012.47;;;17.77;55.96
71643;BME280;59438;45.014;39.006;2022-10-16T12:42:21;102022.94;;;17.80;55.88
71643;BME280;59438;45.014;39.006;2022-10-16T12:44:49;102022.44;;;17.72;56.27
71643;BME280;59438;45.014;39.006;2022-10-16T12:47:24;102014.88;;;17.63;56.32
71643;BME280;59438;45.014;39.006;2022-10-16T12:50:01;102038.00;;;17.61;56.66
71643;BME280;59438;45.014;39.006;2022-10-16T12:52:34;102025.53;;;17.63;56.42
71643;BME280;59438;45.014;39.006;2022-10-16T12:55:01;102033.78;;;17.57;56.77
71643;BME280;59438;45.014;39.006;2022-10-16T12:57:39;102034.63;;;17.57;56.90